sensor_id;sensor_type;location;lat;lon;timestamp;P1;durP1;ratioP1;P2;durP2;ratioP2
18259;SDS011;9256;52.236;5.712;2023-07-02T00:01:50;6.30;;;3.00;;
18259;SDS011;9256;52.236;5.712;2023-07-02T00:04:17;5.85;;;2.78;;
18259;SDS011;9256;52.236;5.712;2023-07-02T00:06:44;6.00;;;2.60;;
18259;SDS011;9256;52.236;5.712;2023-07-02T00:09:13;6.43;;;2.90;;
18259;SDS011;9256;52.236;5.712;2023-07-02T00:11:42;7.00;;;3.00;;
18259;SDS011;9256;52.236;5.712;2023-07-02T00:14:11;6.90;;;3.15;;
18259;SDS011;9256;52.236;5.712;2023-07-02T00:16:38;7.30;;;3.45;;
18259;SDS011;9256;52.236;5.712;2023-07-02T00:19:06;7.07;;;3.20;;
18259;SDS011;9256;52.236;5.712;2023-07-02T00:21:33;11.32;;;3.00;;
18259;SDS011;9256;52.236;5.712;2023-07-02T00:24:02;7.77;;;3.87;;
18259;SDS011;9256;52.236;5.712;2023-07-02T00:26:31;5.75;;;3.38;;
18259;SDS011;9256;52.236;5.712;2023-07-02T00:28:58;7.22;;;3.60;;
18259;SDS011;9256;52.236;5.712;2023-07-02T00:31:25;7.80;;;3.45;;
18259;SDS011;9256;52.236;5.712;2023-07-02T00:33:52;8.90;;;3.55;;
18259;SDS011;9256;52.236;5.712;2023-07-02T00:36:19;6.57;;;3.08;;
18259;SDS011;9256;52.236;5.712;2023-07-02T00:38:47;10.25;;;3.67;;
18259;SDS011;9256;52.236;5.712;2023-07-02T00:41:15;7.82;;;3.50;;
18259;SDS011;9256;52.236;5.712;2023-07-02T00:43:43;9.10;;;3.95;;
18259;SDS011;9256;52.236;5.712;2023-07-02T00:46:11;7.43;;;3.38;;
18259;SDS011;9256;52.236;5.712;2023-07-02T00:48:42;9.82;;;3.75;;
18259;SDS011;9256;52.236;5.712;2023-07-02T00:51:10;7.72;;;3.70;;
18259;SDS011;9256;52.236;5.712;2023-07-02T00:53:39;8.68;;;3.85;;
18259;SDS011;9256;52.236;5.712;2023-07-02T00:56:07;9.82;;;3.55;;
18259;SDS011;9256;52.236;5.712;2023-07-02T00:58:34;8.77;;;3.58;;
18259;SDS011;9256;52.236;5.712;2023-07-02T01:01:05;12.07;;;3.70;;
18259;SDS011;9256;52.236;5.712;2023-07-02T01:03:32;9.57;;;3.50;;
18259;SDS011;9256;52.236;5.712;2023-07-02T01:06:02;9.50;;;4.00;;
18259;SDS011;9256;52.236;5.712;2023-07-02T01:08:29;12.07;;;4.15;;
18259;SDS011;9256;52.236;5.712;2023-07-02T01:10:56;11.48;;;4.05;;
18259;SDS011;9256;52.236;5.712;2023-07-02T01:13:24;10.13;;;3.38;;
18259;SDS011;9256;52.236;5.712;2023-07-02T01:15:53;12.63;;;3.80;;
18259;SDS011;9256;52.236;5.712;2023-07-02T01:18:22;10.45;;;3.70;;
18259;SDS011;9256;52.236;5.712;2023-07-02T01:20:51;16.10;;;4.30;;
18259;SDS011;9256;52.236;5.712;2023-07-02T01:23:19;11.75;;;3.88;;
18259;SDS011;9256;52.236;5.712;2023-07-02T01:25:47;13.57;;;4.18;;
18259;SDS011;9256;52.236;5.712;2023-07-02T01:28:14;12.80;;;3.92;;
18259;SDS011;9256;52.236;5.712;2023-07-02T01:30:41;11.65;;;4.00;;
18259;SDS011;9256;52.236;5.712;2023-07-02T01:33:08;15.15;;;4.47;;
18259;SDS011;9256;52.236;5.712;2023-07-02T01:35:34;13.98;;;4.65;;
18259;SDS011;9256;52.236;5.712;2023-07-02T01:38:03;14.90;;;4.85;;
18259;SDS011;9256;52.236;5.712;2023-07-02T01:40:30;14.93;;;4.60;;
18259;SDS011;9256;52.236;5.712;2023-07-02T01:42:57;16.00;;;4.82;;
18259;SDS011;9256;52.236;5.712;2023-07-02T01:45:23;16.25;;;4.57;;
18259;SDS011;9256;52.236;5.712;2023-07-02T01:47:50;12.93;;;4.30;;
18259;SDS011;9256;52.236;5.712;2023-07-02T01:50:17;13.30;;;4.80;;
18259;SDS011;9256;52.236;5.712;2023-07-02T01:52:44;16.90;;;4.60;;
18259;SDS011;9256;52.236;5.712;2023-07-02T01:55:12;15.02;;;4.30;;
18259;SDS011;9256;52.236;5.712;2023-07-02T01:57:39;13.90;;;4.43;;
18259;SDS011;9256;52.236;5.712;2023-07-02T02:00:07;13.43;;;4.38;;
18259;SDS011;9256;52.236;5.712;2023-07-02T02:02:35;11.70;;;4.28;;
18259;SDS011;9256;52.236;5.712;2023-07-02T02:05:02;11.25;;;3.95;;
18259;SDS011;9256;52.236;5.712;2023-07-02T02:07:29;15.10;;;4.50;;
18259;SDS011;9256;52.236;5.712;2023-07-02T02:09:55;18.58;;;4.50;;
18259;SDS011;9256;52.236;5.712;2023-07-02T02:12:24;15.48;;;4.32;;
18259;SDS011;9256;52.236;5.712;2023-07-02T02:14:51;15.73;;;4.55;;
18259;SDS011;9256;52.236;5.712;2023-07-02T02:17:17;13.77;;;4.55;;
18259;SDS011;9256;52.236;5.712;2023-07-02T02:19:44;16.08;;;4.85;;
18259;SDS011;9256;52.236;5.712;2023-07-02T02:22:11;16.15;;;4.60;;
18259;SDS011;9256;52.236;5.712;2023-07-02T02:24:38;14.02;;;4.57;;
18259;SDS011;9256;52.236;5.712;2023-07-02T02:27:05;15.57;;;4.45;;
18259;SDS011;9256;52.236;5.712;2023-07-02T02:29:33;15.85;;;4.90;;
18259;SDS011;9256;52.236;5.712;2023-07-02T02:32:00;16.83;;;5.10;;
18259;SDS011;9256;52.236;5.712;2023-07-02T02:34:27;16.65;;;4.65;;
18259;SDS011;9256;52.236;5.712;2023-07-02T02:36:54;13.90;;;4.65;;
18259;SDS011;9256;52.236;5.712;2023-07-02T02:39:22;15.88;;;5.15;;
18259;SDS011;9256;52.236;5.712;2023-07-02T02:41:48;16.80;;;4.97;;
18259;SDS011;9256;52.236;5.712;2023-07-02T02:44:15;15.95;;;5.20;;
18259;SDS011;9256;52.236;5.712;2023-07-02T02:46:44;14.07;;;4.75;;
18259;SDS011;9256;52.236;5.712;2023-07-02T02:49:11;16.23;;;5.00;;
18259;SDS011;9256;52.236;5.712;2023-07-02T02:51:38;17.40;;;4.70;;
18259;SDS011;9256;52.236;5.712;2023-07-02T02:54:05;18.73;;;5.15;;
18259;SDS011;9256;52.236;5.712;2023-07-02T02:56:32;19.27;;;4.70;;
18259;SDS011;9256;52.236;5.712;2023-07-02T02:58:59;18.90;;;5.10;;
18259;SDS011;9256;52.236;5.712;2023-07-02T03:01:26;19.10;;;5.15;;
18259;SDS011;9256;52.236;5.712;2023-07-02T03:03:57;15.82;;;4.97;;
18259;SDS011;9256;52.236;5.712;2023-07-02T03:06:25;16.42;;;5.13;;
18259;SDS011;9256;52.236;5.712;2023-07-02T03:08:52;15.68;;;5.13;;
18259;SDS011;9256;52.236;5.712;2023-07-02T03:11:19;15.82;;;5.32;;
18259;SDS011;9256;52.236;5.712;2023-07-02T03:13:45;14.25;;;5.30;;
18259;SDS011;9256;52.236;5.712;2023-07-02T03:16:13;16.67;;;5.30;;
18259;SDS011;9256;52.236;5.712;2023-07-02T03:18:40;20.48;;;4.90;;
18259;SDS011;9256;52.236;5.712;2023-07-02T03:21:08;21.95;;;5.65;;
18259;SDS011;9256;52.236;5.712;2023-07-02T03:23:35;19.23;;;5.38;;
18259;SDS011;9256;52.236;5.712;2023-07-02T03:26:02;22.67;;;5.45;;
18259;SDS011;9256;52.236;5.712;2023-07-02T03:28:29;20.38;;;5.85;;
18259;SDS011;9256;52.236;5.712;2023-07-02T03:30:56;19.92;;;5.78;;
18259;SDS011;9256;52.236;5.712;2023-07-02T03:33:23;20.73;;;5.13;;
18259;SDS011;9256;52.236;5.712;2023-07-02T03:35:50;15.82;;;5.53;;
18259;SDS011;9256;52.236;5.712;2023-07-02T03:38:18;15.82;;;5.43;;
18259;SDS011;9256;52.236;5.712;2023-07-02T03:40:45;18.25;;;5.47;;
18259;SDS011;9256;52.236;5.712;2023-07-02T03:43:12;16.50;;;5.20;;
18259;SDS011;9256;52.236;5.712;2023-07-02T03:45:39;21.70;;;5.70;;
18259;SDS011;9256;52.236;5.712;2023-07-02T03:48:06;16.83;;;5.38;;
18259;SDS011;9256;52.236;5.712;2023-07-02T03:50:33;19.10;;;5.40;;
18259;SDS011;9256;52.236;5.712;2023-07-02T03:53:02;18.70;;;5.40;;
18259;SDS011;9256;52.236;5.712;2023-07-02T03:55:31;23.83;;;5.65;;
18259;SDS011;9256;52.236;5.712;2023-07-02T03:57:58;21.20;;;5.60;;
18259;SDS011;9256;52.236;5.712;2023-07-02T04:00:24;17.52;;;5.30;;
18259;SDS011;9256;52.236;5.712;2023-07-02T04:02:51;22.50;;;5.88;;
18259;SDS011;9256;52.236;5.712;2023-07-02T04:05:18;28.63;;;6.43;;
18259;SDS011;9256;52.236;5.712;2023-07-02T04:07:46;19.98;;;5.55;;
18259;SDS011;9256;52.236;5.712;2023-07-02T04:10:13;21.65;;;5.32;;
18259;SDS011;9256;52.236;5.712;2023-07-02T04:12:41;19.98;;;5.95;;
18259;SDS011;9256;52.236;5.712;2023-07-02T04:15:08;20.92;;;5.63;;
18259;SDS011;9256;52.236;5.712;2023-07-02T04:17:35;20.95;;;6.45;;
18259;SDS011;9256;52.236;5.712;2023-07-02T04:20:02;19.97;;;6.17;;
18259;SDS011;9256;52.236;5.712;2023-07-02T04:22:32;20.92;;;5.97;;
18259;SDS011;9256;52.236;5.712;2023-07-02T04:24:59;20.63;;;6.80;;
18259;SDS011;9256;52.236;5.712;2023-07-02T04:27:26;19.55;;;6.63;;
18259;SDS011;9256;52.236;5.712;2023-07-02T04:29:54;20.08;;;6.28;;
18259;SDS011;9256;52.236;5.712;2023-07-02T04:32:21;19.02;;;5.40;;
18259;SDS011;9256;52.236;5.712;2023-07-02T04:34:49;21.55;;;5.53;;
18259;SDS011;9256;52.236;5.712;2023-07-02T04:37:16;16.30;;;5.63;;
18259;SDS011;9256;52.236;5.712;2023-07-02T04:39:43;20.95;;;5.30;;
18259;SDS011;9256;52.236;5.712;2023-07-02T04:42:10;18.48;;;5.40;;
18259;SDS011;9256;52.236;5.712;2023-07-02T04:44:40;25.15;;;5.53;;
18259;SDS011;9256;52.236;5.712;2023-07-02T04:47:09;19.90;;;5.60;;
18259;SDS011;9256;52.236;5.712;2023-07-02T04:49:36;26.00;;;5.75;;
18259;SDS011;9256;52.236;5.712;2023-07-02T04:52:03;19.05;;;5.95;;
18259;SDS011;9256;52.236;5.712;2023-07-02T04:54:31;17.85;;;5.53;;
18259;SDS011;9256;52.236;5.712;2023-07-02T04:56:58;22.55;;;5.78;;
18259;SDS011;9256;52.236;5.712;2023-07-02T04:59:25;23.73;;;5.90;;
18259;SDS011;9256;52.236;5.712;2023-07-02T05:01:52;21.50;;;6.03;;
18259;SDS011;9256;52.236;5.712;2023-07-02T05:04:20;19.35;;;5.97;;
18259;SDS011;9256;52.236;5.712;2023-07-02T05:06:47;21.92;;;5.53;;
18259;SDS011;9256;52.236;5.712;2023-07-02T05:09:14;21.15;;;5.60;;
18259;SDS011;9256;52.236;5.712;2023-07-02T05:11:41;19.48;;;5.22;;
18259;SDS011;9256;52.236;5.712;2023-07-02T05:14:08;26.25;;;5.60;;
18259;SDS011;9256;52.236;5.712;2023-07-02T05:16:35;22.58;;;5.80;;
18259;SDS011;9256;52.236;5.712;2023-07-02T05:19:01;19.60;;;5.25;;
18259;SDS011;9256;52.236;5.712;2023-07-02T05:21:30;21.23;;;5.45;;
18259;SDS011;9256;52.236;5.712;2023-07-02T05:23:57;22.85;;;5.40;;
18259;SDS011;9256;52.236;5.712;2023-07-02T05:26:24;19.33;;;5.18;;
18259;SDS011;9256;52.236;5.712;2023-07-02T05:28:52;24.10;;;5.80;;
18259;SDS011;9256;52.236;5.712;2023-07-02T05:31:19;23.17;;;5.40;;
18259;SDS011;9256;52.236;5.712;2023-07-02T05:33:46;21.25;;;5.65;;
18259;SDS011;9256;52.236;5.712;2023-07-02T05:36:12;23.17;;;5.90;;
18259;SDS011;9256;52.236;5.712;2023-07-02T05:38:41;19.92;;;5.90;;
18259;SDS011;9256;52.236;5.712;2023-07-02T05:41:08;21.23;;;5.43;;
18259;SDS011;9256;52.236;5.712;2023-07-02T05:43:35;25.10;;;5.75;;
18259;SDS011;9256;52.236;5.712;2023-07-02T05:46:02;21.17;;;5.53;;
18259;SDS011;9256;52.236;5.712;2023-07-02T05:48:29;21.85;;;5.72;;
18259;SDS011;9256;52.236;5.712;2023-07-02T05:50:56;18.52;;;5.10;;
18259;SDS011;9256;52.236;5.712;2023-07-02T05:53:22;23.15;;;6.25;;
18259;SDS011;9256;52.236;5.712;2023-07-02T05:55:51;25.83;;;5.72;;
18259;SDS011;9256;52.236;5.712;2023-07-02T05:58:18;23.90;;;5.90;;
18259;SDS011;9256;52.236;5.712;2023-07-02T06:00:45;20.67;;;5.63;;
18259;SDS011;9256;52.236;5.712;2023-07-02T06:03:14;18.50;;;5.45;;
18259;SDS011;9256;52.236;5.712;2023-07-02T06:05:45;17.90;;;5.15;;
18259;SDS011;9256;52.236;5.712;2023-07-02T06:08:14;19.75;;;5.63;;
18259;SDS011;9256;52.236;5.712;2023-07-02T06:10:41;18.75;;;4.90;;
18259;SDS011;9256;52.236;5.712;2023-07-02T06:13:09;18.70;;;4.72;;
18259;SDS011;9256;52.236;5.712;2023-07-02T06:15:36;20.77;;;5.15;;
18259;SDS011;9256;52.236;5.712;2023-07-02T06:18:03;26.15;;;6.50;;
18259;SDS011;9256;52.236;5.712;2023-07-02T06:20:30;26.33;;;5.60;;
18259;SDS011;9256;52.236;5.712;2023-07-02T06:22:57;19.88;;;6.05;;
18259;SDS011;9256;52.236;5.712;2023-07-02T06:25:24;18.90;;;5.47;;
18259;SDS011;9256;52.236;5.712;2023-07-02T06:27:51;17.23;;;4.88;;
18259;SDS011;9256;52.236;5.712;2023-07-02T06:30:21;20.00;;;4.90;;
18259;SDS011;9256;52.236;5.712;2023-07-02T06:32:48;20.25;;;5.05;;
18259;SDS011;9256;52.236;5.712;2023-07-02T06:35:16;17.38;;;4.93;;
18259;SDS011;9256;52.236;5.712;2023-07-02T06:37:43;20.77;;;5.72;;
18259;SDS011;9256;52.236;5.712;2023-07-02T06:40:10;17.90;;;4.90;;
18259;SDS011;9256;52.236;5.712;2023-07-02T06:42:37;17.23;;;4.90;;
18259;SDS011;9256;52.236;5.712;2023-07-02T06:45:04;20.17;;;4.97;;
18259;SDS011;9256;52.236;5.712;2023-07-02T06:47:36;20.40;;;4.30;;
18259;SDS011;9256;52.236;5.712;2023-07-02T06:50:03;19.30;;;4.20;;
18259;SDS011;9256;52.236;5.712;2023-07-02T06:52:30;16.48;;;4.40;;
18259;SDS011;9256;52.236;5.712;2023-07-02T06:54:57;17.40;;;4.57;;
18259;SDS011;9256;52.236;5.712;2023-07-02T06:57:24;15.77;;;4.90;;
18259;SDS011;9256;52.236;5.712;2023-07-02T06:59:51;14.63;;;4.15;;
18259;SDS011;9256;52.236;5.712;2023-07-02T07:02:17;14.25;;;4.43;;
18259;SDS011;9256;52.236;5.712;2023-07-02T07:04:47;15.07;;;4.05;;
18259;SDS011;9256;52.236;5.712;2023-07-02T07:07:14;17.35;;;4.53;;
18259;SDS011;9256;52.236;5.712;2023-07-02T07:09:41;16.25;;;3.85;;
18259;SDS011;9256;52.236;5.712;2023-07-02T07:12:08;13.88;;;4.03;;
18259;SDS011;9256;52.236;5.712;2023-07-02T07:14:35;15.52;;;4.00;;
18259;SDS011;9256;52.236;5.712;2023-07-02T07:17:02;13.52;;;3.85;;
18259;SDS011;9256;52.236;5.712;2023-07-02T07:19:29;15.65;;;3.83;;
18259;SDS011;9256;52.236;5.712;2023-07-02T07:21:58;16.63;;;4.60;;
18259;SDS011;9256;52.236;5.712;2023-07-02T07:24:25;18.10;;;4.15;;
18259;SDS011;9256;52.236;5.712;2023-07-02T07:26:51;14.63;;;4.03;;
18259;SDS011;9256;52.236;5.712;2023-07-02T07:29:18;18.10;;;3.95;;
18259;SDS011;9256;52.236;5.712;2023-07-02T07:31:45;12.82;;;3.58;;
18259;SDS011;9256;52.236;5.712;2023-07-02T07:34:12;14.45;;;4.07;;
18259;SDS011;9256;52.236;5.712;2023-07-02T07:36:39;15.60;;;3.97;;
18259;SDS011;9256;52.236;5.712;2023-07-02T07:39:08;13.23;;;3.80;;
18259;SDS011;9256;52.236;5.712;2023-07-02T07:41:35;14.18;;;3.92;;
18259;SDS011;9256;52.236;5.712;2023-07-02T07:44:01;11.77;;;3.63;;
18259;SDS011;9256;52.236;5.712;2023-07-02T07:46:28;13.95;;;4.00;;
18259;SDS011;9256;52.236;5.712;2023-07-02T07:48:55;15.10;;;3.45;;
18259;SDS011;9256;52.236;5.712;2023-07-02T07:51:22;12.68;;;3.72;;
18259;SDS011;9256;52.236;5.712;2023-07-02T07:53:49;11.85;;;3.83;;
18259;SDS011;9256;52.236;5.712;2023-07-02T07:56:18;13.52;;;4.10;;
18259;SDS011;9256;52.236;5.712;2023-07-02T07:58:44;10.63;;;3.38;;
18259;SDS011;9256;52.236;5.712;2023-07-02T08:01:11;12.82;;;3.25;;
18259;SDS011;9256;52.236;5.712;2023-07-02T08:03:38;14.57;;;4.03;;
18259;SDS011;9256;52.236;5.712;2023-07-02T08:06:05;13.85;;;3.70;;
18259;SDS011;9256;52.236;5.712;2023-07-02T08:08:32;12.80;;;3.50;;
18259;SDS011;9256;52.236;5.712;2023-07-02T08:10:59;9.60;;;3.28;;
18259;SDS011;9256;52.236;5.712;2023-07-02T08:13:27;14.48;;;3.75;;
18259;SDS011;9256;52.236;5.712;2023-07-02T08:15:54;11.98;;;3.40;;
18259;SDS011;9256;52.236;5.712;2023-07-02T08:18:21;11.80;;;3.30;;
18259;SDS011;9256;52.236;5.712;2023-07-02T08:20:48;11.30;;;3.30;;
18259;SDS011;9256;52.236;5.712;2023-07-02T08:23:15;11.63;;;3.20;;
18259;SDS011;9256;52.236;5.712;2023-07-02T08:25:42;10.15;;;3.15;;
18259;SDS011;9256;52.236;5.712;2023-07-02T08:28:09;10.00;;;3.20;;
18259;SDS011;9256;52.236;5.712;2023-07-02T08:30:37;8.73;;;2.90;;
18259;SDS011;9256;52.236;5.712;2023-07-02T08:33:04;9.82;;;3.03;;
18259;SDS011;9256;52.236;5.712;2023-07-02T08:35:31;10.52;;;3.55;;
18259;SDS011;9256;52.236;5.712;2023-07-02T08:37:58;9.57;;;2.83;;
18259;SDS011;9256;52.236;5.712;2023-07-02T08:40:25;10.50;;;3.08;;
18259;SDS011;9256;52.236;5.712;2023-07-02T08:42:53;11.65;;;3.50;;
18259;SDS011;9256;52.236;5.712;2023-07-02T08:45:21;11.98;;;3.55;;
18259;SDS011;9256;52.236;5.712;2023-07-02T08:47:51;12.93;;;3.20;;
18259;SDS011;9256;52.236;5.712;2023-07-02T08:50:21;12.77;;;3.35;;
18259;SDS011;9256;52.236;5.712;2023-07-02T08:52:48;11.38;;;3.28;;
18259;SDS011;9256;52.236;5.712;2023-07-02T08:55:15;11.55;;;3.33;;
18259;SDS011;9256;52.236;5.712;2023-07-02T08:57:42;16.75;;;4.10;;
18259;SDS011;9256;52.236;5.712;2023-07-02T09:00:15;12.68;;;3.60;;
18259;SDS011;9256;52.236;5.712;2023-07-02T09:02:42;12.45;;;3.67;;
18259;SDS011;9256;52.236;5.712;2023-07-02T09:05:13;10.57;;;4.18;;
18259;SDS011;9256;52.236;5.712;2023-07-02T09:07:43;13.43;;;4.18;;
18259;SDS011;9256;52.236;5.712;2023-07-02T09:10:11;13.80;;;4.03;;
18259;SDS011;9256;52.236;5.712;2023-07-02T09:12:39;11.40;;;3.72;;
18259;SDS011;9256;52.236;5.712;2023-07-02T09:15:06;12.95;;;3.70;;
18259;SDS011;9256;52.236;5.712;2023-07-02T09:17:35;12.73;;;3.55;;
18259;SDS011;9256;52.236;5.712;2023-07-02T09:20:03;11.65;;;3.53;;
18259;SDS011;9256;52.236;5.712;2023-07-02T09:22:34;9.52;;;3.45;;
18259;SDS011;9256;52.236;5.712;2023-07-02T09:25:02;10.63;;;3.97;;
18259;SDS011;9256;52.236;5.712;2023-07-02T09:27:33;14.50;;;3.97;;
18259;SDS011;9256;52.236;5.712;2023-07-02T09:30:05;11.18;;;3.28;;
18259;SDS011;9256;52.236;5.712;2023-07-02T09:32:33;10.05;;;3.42;;
18259;SDS011;9256;52.236;5.712;2023-07-02T09:35:00;13.23;;;3.50;;
18259;SDS011;9256;52.236;5.712;2023-07-02T09:37:29;11.27;;;3.15;;
18259;SDS011;9256;52.236;5.712;2023-07-02T09:39:57;9.23;;;3.10;;
18259;SDS011;9256;52.236;5.712;2023-07-02T09:42:25;8.68;;;3.03;;
18259;SDS011;9256;52.236;5.712;2023-07-02T09:44:54;8.48;;;3.25;;
18259;SDS011;9256;52.236;5.712;2023-07-02T09:47:23;9.07;;;2.88;;
18259;SDS011;9256;52.236;5.712;2023-07-02T09:49:52;10.32;;;3.17;;
18259;SDS011;9256;52.236;5.712;2023-07-02T09:52:21;10.73;;;3.17;;
18259;SDS011;9256;52.236;5.712;2023-07-02T09:54:49;11.43;;;2.95;;
18259;SDS011;9256;52.236;5.712;2023-07-02T09:57:17;8.55;;;2.70;;
18259;SDS011;9256;52.236;5.712;2023-07-02T09:59:44;9.00;;;2.40;;
18259;SDS011;9256;52.236;5.712;2023-07-02T10:02:12;8.68;;;2.42;;
18259;SDS011;9256;52.236;5.712;2023-07-02T10:04:39;11.75;;;3.03;;
18259;SDS011;9256;52.236;5.712;2023-07-02T10:07:07;9.90;;;2.60;;
18259;SDS011;9256;52.236;5.712;2023-07-02T10:09:35;8.90;;;2.55;;
18259;SDS011;9256;52.236;5.712;2023-07-02T10:12:14;10.38;;;2.70;;
18259;SDS011;9256;52.236;5.712;2023-07-02T10:14:44;8.55;;;2.80;;
18259;SDS011;9256;52.236;5.712;2023-07-02T10:17:22;10.75;;;2.67;;
18259;SDS011;9256;52.236;5.712;2023-07-02T10:19:50;11.77;;;2.55;;
18259;SDS011;9256;52.236;5.712;2023-07-02T10:22:18;8.50;;;2.50;;
18259;SDS011;9256;52.236;5.712;2023-07-02T10:24:52;9.65;;;2.28;;
18259;SDS011;9256;52.236;5.712;2023-07-02T10:27:32;6.70;;;2.40;;
18259;SDS011;9256;52.236;5.712;2023-07-02T10:30:01;6.53;;;2.35;;
18259;SDS011;9256;52.236;5.712;2023-07-02T10:32:30;6.18;;;2.22;;
18259;SDS011;9256;52.236;5.712;2023-07-02T10:34:58;6.78;;;2.13;;
18259;SDS011;9256;52.236;5.712;2023-07-02T10:37:27;6.38;;;2.10;;
18259;SDS011;9256;52.236;5.712;2023-07-02T10:40:02;6.60;;;2.20;;
18259;SDS011;9256;52.236;5.712;2023-07-02T10:42:31;10.48;;;2.40;;
18259;SDS011;9256;52.236;5.712;2023-07-02T10:44:59;8.60;;;2.22;;
18259;SDS011;9256;52.236;5.712;2023-07-02T10:47:27;8.50;;;2.10;;
18259;SDS011;9256;52.236;5.712;2023-07-02T10:49:55;7.57;;;2.20;;
18259;SDS011;9256;52.236;5.712;2023-07-02T10:52:22;10.23;;;1.95;;
18259;SDS011;9256;52.236;5.712;2023-07-02T10:54:48;6.50;;;1.77;;
18259;SDS011;9256;52.236;5.712;2023-07-02T10:57:17;6.00;;;1.92;;
18259;SDS011;9256;52.236;5.712;2023-07-02T10:59:46;6.72;;;1.73;;
18259;SDS011;9256;52.236;5.712;2023-07-02T11:02:13;7.57;;;2.00;;
18259;SDS011;9256;52.236;5.712;2023-07-02T11:04:41;6.75;;;2.00;;
18259;SDS011;9256;52.236;5.712;2023-07-02T11:07:09;6.22;;;1.90;;
18259;SDS011;9256;52.236;5.712;2023-07-02T11:09:48;6.50;;;1.80;;
18259;SDS011;9256;52.236;5.712;2023-07-02T11:12:16;6.70;;;1.95;;
18259;SDS011;9256;52.236;5.712;2023-07-02T11:14:43;6.07;;;1.98;;
18259;SDS011;9256;52.236;5.712;2023-07-02T11:17:10;6.15;;;2.20;;
18259;SDS011;9256;52.236;5.712;2023-07-02T11:19:37;8.25;;;2.00;;
18259;SDS011;9256;52.236;5.712;2023-07-02T11:22:06;8.23;;;2.53;;
18259;SDS011;9256;52.236;5.712;2023-07-02T11:24:33;5.32;;;1.90;;
18259;SDS011;9256;52.236;5.712;2023-07-02T11:27:02;7.05;;;2.05;;
18259;SDS011;9256;52.236;5.712;2023-07-02T11:29:30;6.28;;;1.75;;
18259;SDS011;9256;52.236;5.712;2023-07-02T11:32:04;8.82;;;2.38;;
18259;SDS011;9256;52.236;5.712;2023-07-02T11:34:32;6.60;;;2.40;;
18259;SDS011;9256;52.236;5.712;2023-07-02T11:36:59;6.90;;;2.33;;
18259;SDS011;9256;52.236;5.712;2023-07-02T11:39:27;6.50;;;2.45;;
18259;SDS011;9256;52.236;5.712;2023-07-02T11:41:54;7.85;;;2.53;;
18259;SDS011;9256;52.236;5.712;2023-07-02T11:44:21;5.68;;;2.20;;
18259;SDS011;9256;52.236;5.712;2023-07-02T11:46:48;5.95;;;2.33;;
18259;SDS011;9256;52.236;5.712;2023-07-02T11:49:15;6.90;;;2.67;;
18259;SDS011;9256;52.236;5.712;2023-07-02T11:51:43;10.80;;;2.92;;
18259;SDS011;9256;52.236;5.712;2023-07-02T11:54:13;8.13;;;2.63;;
18259;SDS011;9256;52.236;5.712;2023-07-02T11:56:42;6.35;;;2.42;;
18259;SDS011;9256;52.236;5.712;2023-07-02T11:59:10;6.35;;;2.50;;
18259;SDS011;9256;52.236;5.712;2023-07-02T12:01:36;8.52;;;2.38;;
18259;SDS011;9256;52.236;5.712;2023-07-02T12:04:03;9.10;;;3.00;;
18259;SDS011;9256;52.236;5.712;2023-07-02T12:06:32;8.35;;;2.22;;
18259;SDS011;9256;52.236;5.712;2023-07-02T12:08:59;9.02;;;2.83;;
18259;SDS011;9256;52.236;5.712;2023-07-02T12:11:26;6.20;;;2.55;;
18259;SDS011;9256;52.236;5.712;2023-07-02T12:13:54;6.15;;;2.40;;
18259;SDS011;9256;52.236;5.712;2023-07-02T12:16:21;9.15;;;2.60;;
18259;SDS011;9256;52.236;5.712;2023-07-02T12:18:48;8.07;;;2.47;;
18259;SDS011;9256;52.236;5.712;2023-07-02T12:21:15;8.07;;;2.67;;
18259;SDS011;9256;52.236;5.712;2023-07-02T12:23:43;10.65;;;2.90;;
18259;SDS011;9256;52.236;5.712;2023-07-02T12:26:10;7.32;;;3.00;;
18259;SDS011;9256;52.236;5.712;2023-07-02T12:28:37;9.32;;;2.95;;
18259;SDS011;9256;52.236;5.712;2023-07-02T12:31:05;9.60;;;2.72;;
18259;SDS011;9256;52.236;5.712;2023-07-02T12:33:32;8.32;;;2.95;;
18259;SDS011;9256;52.236;5.712;2023-07-02T12:35:59;9.38;;;2.90;;
18259;SDS011;9256;52.236;5.712;2023-07-02T12:38:26;8.75;;;2.80;;
18259;SDS011;9256;52.236;5.712;2023-07-02T12:40:53;6.70;;;2.58;;
18259;SDS011;9256;52.236;5.712;2023-07-02T12:43:19;10.18;;;2.78;;
18259;SDS011;9256;52.236;5.712;2023-07-02T12:45:46;6.57;;;2.40;;
18259;SDS011;9256;52.236;5.712;2023-07-02T12:48:15;8.70;;;2.60;;
18259;SDS011;9256;52.236;5.712;2023-07-02T12:50:42;5.78;;;2.47;;
18259;SDS011;9256;52.236;5.712;2023-07-02T12:53:20;9.02;;;2.50;;
18259;SDS011;9256;52.236;5.712;2023-07-02T12:55:47;6.95;;;2.70;;
18259;SDS011;9256;52.236;5.712;2023-07-02T12:58:14;8.30;;;2.97;;
18259;SDS011;9256;52.236;5.712;2023-07-02T13:00:41;7.70;;;2.58;;
18259;SDS011;9256;52.236;5.712;2023-07-02T13:03:09;10.98;;;2.42;;
18259;SDS011;9256;52.236;5.712;2023-07-02T13:05:39;8.35;;;2.78;;
18259;SDS011;9256;52.236;5.712;2023-07-02T13:08:06;9.68;;;3.00;;
18259;SDS011;9256;52.236;5.712;2023-07-02T13:10:33;6.72;;;2.50;;
18259;SDS011;9256;52.236;5.712;2023-07-02T13:13:00;8.90;;;2.80;;
18259;SDS011;9256;52.236;5.712;2023-07-02T13:15:27;33.72;;;14.85;;
18259;SDS011;9256;52.236;5.712;2023-07-02T13:17:54;23.80;;;9.48;;
18259;SDS011;9256;52.236;5.712;2023-07-02T13:20:21;13.93;;;4.65;;
18259;SDS011;9256;52.236;5.712;2023-07-02T13:22:49;10.35;;;3.38;;
18259;SDS011;9256;52.236;5.712;2023-07-02T13:25:16;7.90;;;2.92;;
18259;SDS011;9256;52.236;5.712;2023-07-02T13:27:43;10.10;;;3.20;;
18259;SDS011;9256;52.236;5.712;2023-07-02T13:30:10;7.45;;;2.63;;
18259;SDS011;9256;52.236;5.712;2023-07-02T13:32:38;7.47;;;2.40;;
18259;SDS011;9256;52.236;5.712;2023-07-02T13:35:05;10.15;;;2.88;;
18259;SDS011;9256;52.236;5.712;2023-07-02T13:37:32;7.63;;;2.60;;
18259;SDS011;9256;52.236;5.712;2023-07-02T13:40:01;14.95;;;2.95;;
18259;SDS011;9256;52.236;5.712;2023-07-02T13:42:28;7.30;;;2.90;;
18259;SDS011;9256;52.236;5.712;2023-07-02T13:44:55;11.18;;;2.88;;
18259;SDS011;9256;52.236;5.712;2023-07-02T13:47:22;10.13;;;2.80;;
18259;SDS011;9256;52.236;5.712;2023-07-02T13:49:49;9.30;;;3.17;;
18259;SDS011;9256;52.236;5.712;2023-07-02T13:52:17;7.45;;;2.72;;
18259;SDS011;9256;52.236;5.712;2023-07-02T13:54:44;7.72;;;2.83;;
18259;SDS011;9256;52.236;5.712;2023-07-02T13:57:12;7.03;;;2.58;;
18259;SDS011;9256;52.236;5.712;2023-07-02T13:59:41;9.07;;;2.92;;
18259;SDS011;9256;52.236;5.712;2023-07-02T14:02:08;9.18;;;3.25;;
18259;SDS011;9256;52.236;5.712;2023-07-02T14:04:35;11.07;;;2.90;;
18259;SDS011;9256;52.236;5.712;2023-07-02T14:07:02;9.18;;;2.90;;
18259;SDS011;9256;52.236;5.712;2023-07-02T14:09:30;7.57;;;2.70;;
18259;SDS011;9256;52.236;5.712;2023-07-02T14:11:57;10.80;;;3.30;;
18259;SDS011;9256;52.236;5.712;2023-07-02T14:14:24;10.70;;;3.38;;
18259;SDS011;9256;52.236;5.712;2023-07-02T14:16:52;10.93;;;3.17;;
18259;SDS011;9256;52.236;5.712;2023-07-02T14:19:19;8.63;;;3.00;;
18259;SDS011;9256;52.236;5.712;2023-07-02T14:21:46;8.32;;;3.22;;
18259;SDS011;9256;52.236;5.712;2023-07-02T14:24:14;9.27;;;3.40;;
18259;SDS011;9256;52.236;5.712;2023-07-02T14:26:41;9.18;;;3.05;;
18259;SDS011;9256;52.236;5.712;2023-07-02T14:29:08;11.05;;;3.13;;
18259;SDS011;9256;52.236;5.712;2023-07-02T14:31:35;9.45;;;3.05;;
18259;SDS011;9256;52.236;5.712;2023-07-02T14:34:04;8.90;;;3.10;;
18259;SDS011;9256;52.236;5.712;2023-07-02T14:36:31;10.02;;;3.08;;
18259;SDS011;9256;52.236;5.712;2023-07-02T14:38:57;10.02;;;3.20;;
18259;SDS011;9256;52.236;5.712;2023-07-02T14:41:24;9.52;;;3.20;;
18259;SDS011;9256;52.236;5.712;2023-07-02T14:43:52;9.80;;;3.40;;
18259;SDS011;9256;52.236;5.712;2023-07-02T14:46:18;11.38;;;3.22;;
18259;SDS011;9256;52.236;5.712;2023-07-02T14:48:47;9.85;;;3.30;;
18259;SDS011;9256;52.236;5.712;2023-07-02T14:51:15;7.68;;;3.10;;
18259;SDS011;9256;52.236;5.712;2023-07-02T14:53:42;11.65;;;3.33;;
18259;SDS011;9256;52.236;5.712;2023-07-02T14:56:09;8.45;;;3.35;;